createdAt,value
2023-03-17T00:00:51.739Z,99584.56
2023-03-17T00:03:30.522Z,99584.84
2023-03-17T00:06:02.339Z,99581.09
2023-03-17T00:08:34.027Z,99596.38
2023-03-17T00:11:02.757Z,99594.13
2023-03-17T00:13:34.724Z,99602.56
2023-03-17T00:16:06.026Z,99603.09
2023-03-17T00:18:36.433Z,99601.63
2023-03-17T00:21:08.893Z,99620.00
2023-03-17T00:23:37.359Z,99626.13
2023-03-17T00:26:05.922Z,99609.41
2023-03-17T00:28:34.643Z,99617.84
2023-03-17T00:31:07.896Z,99631.09
2023-03-17T00:33:39.132Z,99630.69
2023-03-17T00:36:08.505Z,99626.69
2023-03-17T00:38:37.140Z,99628.25
2023-03-17T00:41:08.087Z,99643.81
2023-03-17T00:43:37.789Z,99645.41
2023-03-17T00:46:17.465Z,99647.75
2023-03-17T00:48:47.616Z,99649.31
2023-03-17T00:51:20.002Z,99658.00
2023-03-17T00:53:48.868Z,99658.84
2023-03-17T00:56:20.592Z,99663.97
2023-03-17T00:58:50.141Z,99657.94
2023-03-17T01:01:19.427Z,99667.88
2023-03-17T01:03:47.824Z,99670.25
2023-03-17T01:06:21.229Z,99676.91
2023-03-17T01:08:53.227Z,99679.72
2023-03-17T01:11:23.649Z,99685.13
2023-03-17T01:13:52.992Z,99693.84
2023-03-17T01:16:22.605Z,99691.81
2023-03-17T01:18:51.144Z,99689.31
2023-03-17T01:21:19.437Z,99690.88
2023-03-17T01:23:48.309Z,99695.25
2023-03-17T01:26:17.291Z,99688.13
2023-03-17T01:28:49.652Z,99699.13
2023-03-17T01:31:18.279Z,99696.31
2023-03-17T01:33:47.052Z,99704.78
2023-03-17T01:36:16.608Z,99713.47
2023-03-17T01:38:44.891Z,99720.34
2023-03-17T01:41:13.622Z,99723.16
2023-03-17T01:43:42.558Z,99713.50
2023-03-17T01:46:31.558Z,99712.75
2023-03-17T01:49:07.690Z,99715.56
2023-03-17T01:51:42.331Z,99705.59
2023-03-17T01:54:20.420Z,99713.56
2023-03-17T01:56:56.381Z,99719.19
2023-03-17T01:59:33.943Z,99720.22
2023-03-17T02:02:07.796Z,99731.69
2023-03-17T02:04:38.290Z,99736.03
2023-03-17T02:07:09.921Z,99734.78
2023-03-17T02:09:38.908Z,99738.34
2023-03-17T02:12:11.246Z,99740.38
2023-03-17T02:14:40.181Z,99738.31
2023-03-17T02:17:10.643Z,99738.31
2023-03-17T02:19:41.063Z,99738.38
2023-03-17T02:22:10.187Z,99736.06
2023-03-17T02:24:57.824Z,99737.56
2023-03-17T02:27:32.996Z,99739.84
2023-03-17T02:30:01.340Z,99742.16
2023-03-17T02:32:30.054Z,99744.97
2023-03-17T02:34:58.498Z,99743.66
2023-03-17T02:37:26.966Z,99752.06
2023-03-17T02:39:55.434Z,99735.44
2023-03-17T02:42:24.055Z,99734.91
2023-03-17T02:44:56.970Z,99735.94
2023-03-17T02:47:26.611Z,99729.75
2023-03-17T02:52:47.622Z,99725.59
2023-03-17T02:55:32.890Z,99727.84
2023-03-17T03:00:49.943Z,99722.41
2023-03-17T03:03:18.958Z,99725.94
2023-03-17T03:05:50.162Z,99731.78
2023-03-17T03:08:24.815Z,99721.53
2023-03-17T03:13:41.595Z,99721.97
2023-03-17T03:16:20.345Z,99710.13
2023-03-17T03:18:51.429Z,99717.25
2023-03-17T03:24:14.148Z,99703.63
2023-03-17T03:26:55.363Z,99700.75
2023-03-17T03:32:09.892Z,99699.56
2023-03-17T03:34:41.446Z,99698.53
2023-03-17T03:37:17.105Z,99691.53
2023-03-17T03:42:34.379Z,99684.44
2023-03-17T03:47:47.644Z,99679.13
2023-03-17T03:50:16.103Z,99667.25
2023-03-17T03:52:45.422Z,99670.78
2023-03-17T03:55:15.838Z,99672.47
2023-03-17T03:57:45.626Z,99671.09
2023-03-17T04:00:15.962Z,99660.22
2023-03-17T04:02:47.617Z,99668.06
2023-03-17T04:05:22.060Z,99666.69
2023-03-17T04:08:00.896Z,99671.72
2023-03-17T04:10:31.043Z,99658.31
2023-03-17T04:15:41.995Z,99652.94
2023-03-17T04:18:12.449Z,99651.03
2023-03-17T04:23:32.012Z,99647.19
2023-03-17T04:26:02.753Z,99637.31
2023-03-17T04:28:40.174Z,99636.69
2023-03-17T04:31:10.109Z,99626.81
2023-03-17T04:33:38.440Z,99623.88
2023-03-17T04:36:08.740Z,99610.97
2023-03-17T04:38:37.871Z,99602.16
2023-03-17T04:41:08.623Z,99597.16
2023-03-17T04:43:37.136Z,99586.53
2023-03-17T04:46:16.813Z,99587.19
2023-03-17T04:51:38.154Z,99572.25
2023-03-17T04:54:10.600Z,99567.06
2023-03-17T04:56:41.905Z,99557.91
2023-03-17T04:59:11.829Z,99554.19
2023-03-17T05:01:46.205Z,99546.81
2023-03-17T05:04:22.087Z,99543.31
2023-03-17T05:07:03.149Z,99539.59
2023-03-17T05:09:34.860Z,99528.16
2023-03-17T05:12:04.199Z,99524.84
2023-03-17T05:14:33.645Z,99519.28
2023-03-17T05:17:05.243Z,99520.66
2023-03-17T05:19:33.710Z,99514.09
2023-03-17T05:22:07.976Z,99510.59
2023-03-17T05:24:48.080Z,99496.34
2023-03-17T05:27:17.333Z,99494.13
2023-03-17T05:29:46.972Z,99484.16
2023-03-17T05:37:41.818Z,99469.75
2023-03-17T05:40:16.276Z,99470.56
2023-03-17T05:42:45.878Z,99459.28
2023-03-17T05:45:15.484Z,99453.91
2023-03-17T05:47:48.152Z,99444.88
2023-03-17T05:53:10.103Z,99429.59
2023-03-17T05:55:41.594Z,99426.97
2023-03-17T05:58:21.408Z,99420.19
2023-03-17T06:01:01.492Z,99409.63
2023-03-17T06:03:31.041Z,99411.91
2023-03-17T06:06:07.550Z,99398.69
2023-03-17T06:11:22.496Z,99395.84
2023-03-17T06:13:54.969Z,99388.31
2023-03-17T06:16:25.213Z,99382.25
2023-03-17T06:18:57.122Z,99379.66
2023-03-17T06:21:27.249Z,99372.28
2023-03-17T06:24:00.943Z,99367.03
2023-03-17T06:26:40.796Z,99370.03
2023-03-17T06:29:27.201Z,99359.09
2023-03-17T06:32:17.090Z,99354.53
2023-03-17T06:35:00.784Z,99346.22
2023-03-17T06:37:42.435Z,99333.19
2023-03-17T06:40:17.619Z,99329.41
2023-03-17T06:42:46.159Z,99326.00
2023-03-17T06:45:18.898Z,99319.97
2023-03-17T06:47:48.275Z,99313.91
2023-03-17T06:50:30.979Z,99302.94
2023-03-17T06:55:46.631Z,99284.19
2023-03-17T07:00:58.439Z,99265.84
2023-03-17T07:06:16.191Z,99266.63
2023-03-17T07:08:45.983Z,99265.28
2023-03-17T07:11:21.330Z,99255.44
2023-03-17T07:13:53.949Z,99241.84
2023-03-17T07:16:32.330Z,99242.78
2023-03-17T07:21:53.241Z,99235.94
2023-03-17T07:24:21.909Z,99228.94
2023-03-17T07:26:50.510Z,99227.63
2023-03-17T07:29:19.688Z,99223.25
2023-03-17T07:31:48.208Z,99218.34
2023-03-17T07:34:18.394Z,99208.50
2023-03-17T07:36:52.390Z,99210.19
2023-03-17T07:39:23.058Z,99203.94
2023-03-17T07:41:58.906Z,99193.91
2023-03-17T07:44:28.499Z,99196.16
2023-03-17T07:46:58.321Z,99192.75
2023-03-17T07:49:40.684Z,99179.31
2023-03-17T07:52:17.169Z,99178.00
2023-03-17T07:54:46.954Z,99170.41
2023-03-17T07:57:17.665Z,99160.38
2023-03-17T07:59:49.194Z,99161.53
2023-03-17T08:02:20.420Z,99162.88
2023-03-17T08:04:51.819Z,99155.09
2023-03-17T08:07:20.678Z,99152.09
2023-03-17T08:09:49.108Z,99163.25
2023-03-17T08:12:17.548Z,99152.09
2023-03-17T08:17:32.893Z,99147.91
2023-03-17T08:20:01.582Z,99136.38
2023-03-17T08:22:31.182Z,99139.22
2023-03-17T08:25:01.191Z,99128.63
2023-03-17T08:27:38.650Z,99135.63
2023-03-17T08:35:34.958Z,99124.66
2023-03-17T08:38:06.423Z,99132.44
2023-03-17T08:40:53.445Z,99120.72
2023-03-17T08:43:34.472Z,99123.56
2023-03-17T08:46:20.145Z,99121.31
2023-03-17T08:48:50.931Z,99130.97
2023-03-17T08:51:24.379Z,99120.72
2023-03-17T08:53:59.866Z,99114.53
2023-03-17T08:56:29.789Z,99115.84
2023-03-17T08:59:01.636Z,99119.22
2023-03-17T09:04:15.051Z,99113.19
2023-03-17T09:07:02.892Z,99120.22
2023-03-17T09:12:28.030Z,99109.81
2023-03-17T09:15:09.615Z,99107.56
2023-03-17T09:20:24.407Z,99115.50
2023-03-17T09:22:56.603Z,99107.56
2023-03-17T09:25:36.146Z,99110.22
2023-03-17T09:28:05.676Z,99118.56
2023-03-17T09:30:34.169Z,99111.75
2023-03-17T09:33:02.729Z,99110.81
2023-03-17T09:35:32.355Z,99117.06
2023-03-17T09:38:00.744Z,99117.47
2023-03-17T09:40:39.910Z,99118.41
2023-03-17T09:43:34.115Z,99113.69
2023-03-17T09:46:23.851Z,99116.16
2023-03-17T09:49:12.803Z,99112.16
2023-03-17T09:51:50.973Z,99115.97
2023-03-17T09:57:25.846Z,99132.03
2023-03-17T10:00:24.089Z,99128.81
2023-03-17T10:02:59.979Z,99121.25
2023-03-17T10:05:43.021Z,99122.97
2023-03-17T10:08:32.587Z,99126.75
2023-03-17T10:11:16.002Z,99135.44
2023-03-17T10:14:12.797Z,99129.75
2023-03-17T10:16:54.778Z,99127.63
2023-03-17T10:19:39.683Z,99135.00
2023-03-17T10:22:39.101Z,99136.50
2023-03-17T10:25:35.496Z,99141.59
2023-03-17T10:28:12.531Z,99132.31
2023-03-17T10:30:42.483Z,99145.16
2023-03-17T10:33:26.198Z,99134.00
2023-03-17T10:36:05.857Z,99135.50
2023-03-17T10:38:38.733Z,99130.56
2023-03-17T10:41:17.101Z,99140.50
2023-03-17T10:43:54.803Z,99145.59
2023-03-17T10:46:26.807Z,99142.72
2023-03-17T10:49:20.681Z,99144.19
2023-03-17T10:51:56.676Z,99142.84
2023-03-17T10:54:43.096Z,99152.06
2023-03-17T10:57:16.417Z,99151.47
2023-03-17T10:59:50.365Z,99147.63
2023-03-17T11:02:41.932Z,99144.72
2023-03-17T11:05:28.153Z,99142.22
2023-03-17T11:08:09.671Z,99150.44
2023-03-17T11:10:41.412Z,99152.47
2023-03-17T11:13:12.270Z,99148.81
2023-03-17T11:16:01.948Z,99151.56
2023-03-17T11:21:50.675Z,99150.47
2023-03-17T11:24:56.175Z,99148.31
2023-03-17T11:27:46.130Z,99158.78
2023-03-17T11:30:41.154Z,99167.00
2023-03-17T11:33:25.179Z,99168.44
2023-03-17T11:36:06.055Z,99169.84
2023-03-17T11:41:36.268Z,99169.69
2023-03-17T11:47:44.862Z,99176.66
2023-03-17T11:50:23.271Z,99181.88
2023-03-17T11:53:26.548Z,99175.06
2023-03-17T11:56:44.460Z,99182.13
2023-03-17T11:59:41.123Z,99183.53
2023-03-17T12:02:39.564Z,99193.63
2023-03-17T12:05:17.675Z,99203.72
2023-03-17T12:08:11.962Z,99202.31
2023-03-17T12:10:56.687Z,99208.81
2023-03-17T12:14:01.054Z,99200.97
2023-03-17T12:16:48.625Z,99209.53
2023-03-17T12:22:28.680Z,99208.25
2023-03-17T12:25:26.745Z,99210.94
2023-03-17T12:28:21.078Z,99218.72
2023-03-17T12:31:21.468Z,99228.59
2023-03-17T12:34:16.488Z,99236.16
2023-03-17T12:36:51.745Z,99235.69
2023-03-17T12:39:31.407Z,99242.72
2023-03-17T12:42:28.459Z,99249.19
2023-03-17T12:45:29.325Z,99254.69
2023-03-17T12:48:15.728Z,99262.47
2023-03-17T12:51:08.073Z,99275.09
2023-03-17T12:59:22.276Z,99279.84
2023-03-17T13:02:34.523Z,99272.69
2023-03-17T13:05:09.009Z,99273.00
2023-03-17T13:10:54.821Z,99275.44
2023-03-17T13:14:26.012Z,99279.31
2023-03-17T13:17:12.295Z,99275.50
2023-03-17T13:20:02.106Z,99281.41
2023-03-17T13:22:49.119Z,99275.56
2023-03-17T13:26:08.339Z,99279.97
2023-03-17T13:37:14.189Z,99302.38
2023-03-17T13:39:59.791Z,99301.91
2023-03-17T13:42:51.820Z,99298.41
2023-03-17T13:45:39.196Z,99294.91
2023-03-17T13:48:30.401Z,99297.03
2023-03-17T13:51:19.669Z,99301.69
2023-03-17T13:54:18.741Z,99307.34
2023-03-17T13:57:07.009Z,99301.25
2023-03-17T13:59:57.894Z,99298.97
2023-03-17T14:02:37.654Z,99307.94
2023-03-17T14:05:25.637Z,99303.88
2023-03-17T14:08:26.784Z,99302.13
2023-03-17T14:11:03.652Z,99306.75
2023-03-17T14:13:44.787Z,99302.94
2023-03-17T14:16:31.112Z,99318.81
2023-03-17T14:19:18.197Z,99315.75
2023-03-17T14:21:51.370Z,99326.50
2023-03-17T14:27:23.163Z,99312.81
2023-03-17T14:29:56.761Z,99322.28
2023-03-17T14:35:28.401Z,99327.97
2023-03-17T14:50:00.694Z,99358.00
2023-03-17T14:55:18.070Z,99367.78
2023-03-17T14:58:03.508Z,99364.44
2023-03-17T15:00:40.698Z,99370.31
2023-03-17T15:03:39.063Z,99362.94
2023-03-17T15:06:28.021Z,99372.41
2023-03-17T15:09:06.748Z,99368.59
2023-03-17T15:14:45.828Z,99366.84
2023-03-17T15:20:43.253Z,99367.34
2023-03-17T15:40:07.659Z,99378.44
2023-03-17T15:42:42.639Z,99375.34
2023-03-17T15:45:18.922Z,99375.88
2023-03-17T15:47:48.356Z,99386.34
2023-03-17T15:50:30.490Z,99387.63
2023-03-17T15:52:59.903Z,99384.03
2023-03-17T15:55:30.783Z,99382.75
2023-03-17T15:57:59.874Z,99380.72
2023-03-17T16:00:30.678Z,99377.91
2023-03-17T16:03:05.518Z,99377.16
2023-03-17T16:05:37.113Z,99377.66
2023-03-17T16:08:05.589Z,99381.00
2023-03-17T16:10:34.567Z,99377.94
2023-03-17T16:13:03.006Z,99378.47
2023-03-17T16:15:38.231Z,99383.84
2023-03-17T16:18:13.718Z,99367.50
2023-03-17T16:20:53.268Z,99361.66
2023-03-17T16:26:16.792Z,99353.53
2023-03-17T16:28:48.629Z,99357.13
2023-03-17T16:31:38.584Z,99344.84
2023-03-17T16:34:24.282Z,99343.09
2023-03-17T16:36:52.785Z,99344.13
2023-03-17T16:39:23.625Z,99348.69
2023-03-17T16:41:54.359Z,99353.31
2023-03-17T16:44:34.699Z,99349.75
2023-03-17T16:47:06.584Z,99338.78
2023-03-17T16:49:43.996Z,99346.97
2023-03-17T16:52:13.881Z,99343.38
2023-03-17T16:54:43.392Z,99347.22
2023-03-17T16:59:56.495Z,99329.63
2023-03-17T17:02:24.909Z,99329.38
2023-03-17T17:04:53.346Z,99331.94
2023-03-17T17:07:21.760Z,99333.75
2023-03-17T17:09:50.116Z,99330.69
2023-03-17T17:12:18.452Z,99326.13
2023-03-17T17:14:47.177Z,99305.47
2023-03-17T17:17:16.785Z,99315.69
2023-03-17T17:19:45.193Z,99309.06
2023-03-17T17:22:17.780Z,99310.09
2023-03-17T17:24:55.557Z,99312.16
2023-03-17T17:27:30.224Z,99305.53
2023-03-17T17:30:02.443Z,99305.25
2023-03-17T17:32:35.262Z,99312.13
2023-03-17T17:38:10.911Z,99300.69
2023-03-17T17:46:33.704Z,99283.84
2023-03-17T17:49:02.143Z,99286.66
2023-03-17T17:51:30.445Z,99284.38
2023-03-17T17:53:58.768Z,99280.03
2023-03-17T17:56:34.437Z,99284.66
2023-03-17T17:59:02.936Z,99278.78
2023-03-17T18:01:33.977Z,99275.22
2023-03-17T18:04:13.839Z,99271.41
2023-03-17T18:06:47.118Z,99270.66
2023-03-17T18:09:22.396Z,99268.59
2023-03-17T18:17:18.276Z,99265.81
2023-03-17T18:19:47.305Z,99248.97
2023-03-17T18:22:18.372Z,99243.88
2023-03-17T18:24:57.766Z,99243.13
2023-03-17T18:27:26.673Z,99233.72
2023-03-17T18:38:11.984Z,99224.03
2023-03-17T18:40:42.728Z,99218.16
2023-03-17T18:43:21.198Z,99220.22
2023-03-17T18:45:53.037Z,99213.56
2023-03-17T18:48:26.893Z,99210.75
2023-03-17T18:51:04.923Z,99208.47
2023-03-17T18:53:47.788Z,99202.88
2023-03-17T18:59:07.788Z,99198.28
2023-03-17T19:04:22.937Z,99194.72
2023-03-17T19:06:51.430Z,99199.56
2023-03-17T19:09:20.092Z,99192.44
2023-03-17T19:11:48.732Z,99193.72
2023-03-17T19:14:17.275Z,99190.16
2023-03-17T19:16:45.934Z,99177.44
2023-03-17T19:19:14.490Z,99184.31
2023-03-17T19:21:42.851Z,99184.31
2023-03-17T19:24:12.316Z,99183.56
2023-03-17T19:26:41.127Z,99184.81
2023-03-17T19:29:10.881Z,99182.03
2023-03-17T19:31:43.663Z,99176.41
2023-03-17T19:34:13.903Z,99180.75
2023-03-17T19:36:43.944Z,99191.19
2023-03-17T19:39:12.488Z,99186.34
2023-03-17T19:41:41.415Z,99178.47
2023-03-17T19:44:09.886Z,99177.69
2023-03-17T19:46:39.127Z,99169.81
2023-03-17T19:49:07.562Z,99163.44
2023-03-17T19:51:35.876Z,99169.81
2023-03-17T19:54:06.266Z,99173.38
2023-03-17T19:56:34.932Z,99169.06
2023-03-17T19:59:03.282Z,99169.56
2023-03-17T20:01:33.000Z,99166.50
2023-03-17T20:04:01.507Z,99170.84
2023-03-17T20:06:32.257Z,99173.41
2023-03-17T20:09:00.593Z,99171.88
2023-03-17T20:11:28.965Z,99178.00
2023-03-17T20:13:57.279Z,99176.22
2023-03-17T20:16:25.642Z,99175.47
2023-03-17T20:18:54.034Z,99174.44
2023-03-17T20:21:22.541Z,99174.94
2023-03-17T20:23:50.978Z,99168.31
2023-03-17T20:26:27.461Z,99172.41
2023-03-17T20:28:59.557Z,99174.19
2023-03-17T20:31:29.846Z,99175.47
2023-03-17T20:34:02.106Z,99173.72
2023-03-17T20:36:30.541Z,99172.19
2023-03-17T20:38:59.747Z,99173.47
2023-03-17T20:41:41.804Z,99178.81
2023-03-17T20:44:11.355Z,99180.09
2023-03-17T20:46:40.265Z,99179.84
2023-03-17T20:49:08.867Z,99178.81
2023-03-17T20:51:37.841Z,99181.63
2023-03-17T20:54:07.212Z,99180.63
2023-03-17T20:56:37.514Z,99181.13
2023-03-17T20:59:10.387Z,99183.16
2023-03-17T21:01:40.086Z,99181.38
2023-03-17T21:04:10.047Z,99181.88
2023-03-17T21:06:45.441Z,99181.63
2023-03-17T21:09:27.575Z,99184.94
2023-03-17T21:11:55.955Z,99193.84
2023-03-17T21:14:24.400Z,99187.97
2023-03-17T21:16:52.772Z,99197.66
2023-03-17T21:19:21.875Z,99199.69
2023-03-17T21:21:50.385Z,99193.84
2023-03-17T21:24:39.310Z,99196.38
2023-03-17T21:27:25.094Z,99195.63
2023-03-17T21:29:56.080Z,99208.88
2023-03-17T21:32:33.886Z,99210.66
2023-03-17T21:35:05.503Z,99211.16
2023-03-17T21:37:40.573Z,99216.50
2023-03-17T21:40:10.746Z,99214.97
2023-03-17T21:42:41.736Z,99223.88
2023-03-17T21:45:10.440Z,99215.50
2023-03-17T21:50:35.664Z,99222.09
2023-03-17T21:53:06.951Z,99234.03
2023-03-17T21:55:38.340Z,99228.94
2023-03-17T21:58:07.616Z,99224.63
2023-03-17T22:00:44.775Z,99236.84
2023-03-17T22:03:16.012Z,99242.97
2023-03-17T22:05:45.110Z,99239.91
2023-03-17T22:08:15.611Z,99247.53
2023-03-17T22:10:52.999Z,99251.59
2023-03-17T22:13:21.561Z,99258.22
2023-03-17T22:15:49.964Z,99261.28
2023-03-17T22:18:21.769Z,99260.25
2023-03-17T22:20:55.182Z,99268.66
2023-03-17T22:23:25.741Z,99276.28
2023-03-17T22:26:05.211Z,99275.25
2023-03-17T22:28:35.191Z,99283.41
2023-03-17T22:31:06.857Z,99281.13
2023-03-17T22:33:43.688Z,99282.91
2023-03-17T22:44:30.108Z,99307.03
2023-03-17T22:47:01.421Z,99306.00
2023-03-17T22:49:41.704Z,99315.41
2023-03-17T22:52:11.909Z,99322.78
2023-03-17T22:57:32.322Z,99334.97
2023-03-17T23:00:05.003Z,99333.44
2023-03-17T23:02:45.508Z,99339.53
2023-03-17T23:08:04.438Z,99384.53
2023-03-17T23:21:35.792Z,99402.38
2023-03-17T23:24:08.162Z,99417.38
2023-03-17T23:32:30.674Z,99420.19
2023-03-17T23:37:42.919Z,99422.00
2023-03-17T23:40:27.456Z,99427.09
2023-03-17T23:42:59.099Z,99429.38
2023-03-17T23:45:32.375Z,99438.06
2023-03-17T23:50:43.415Z,99424.59
2023-03-17T23:53:16.087Z,99423.59
